sensor_id;sensor_type;location;lat;lon;timestamp;P1;durP1;ratioP1;P2;durP2;ratioP2
4963;SDS011;2497;47.410;9.740;2022-07-23T00:01:34;14.47;;;9.53;;
4963;SDS011;2497;47.410;9.740;2022-07-23T00:04:02;13.93;;;9.23;;
4963;SDS011;2497;47.410;9.740;2022-07-23T00:06:31;21.73;;;10.40;;
4963;SDS011;2497;47.410;9.740;2022-07-23T00:08:58;19.57;;;10.73;;
4963;SDS011;2497;47.410;9.740;2022-07-23T00:11:25;17.30;;;10.63;;
4963;SDS011;2497;47.410;9.740;2022-07-23T00:13:53;16.00;;;10.83;;
4963;SDS011;2497;47.410;9.740;2022-07-23T00:16:22;15.80;;;10.00;;
4963;SDS011;2497;47.410;9.740;2022-07-23T00:18:50;15.90;;;9.53;;
4963;SDS011;2497;47.410;9.740;2022-07-23T00:21:17;18.30;;;10.37;;
4963;SDS011;2497;47.410;9.740;2022-07-23T00:23:46;20.57;;;10.30;;
4963;SDS011;2497;47.410;9.740;2022-07-23T00:26:14;17.10;;;10.63;;
4963;SDS011;2497;47.410;9.740;2022-07-23T00:28:41;18.33;;;10.83;;
4963;SDS011;2497;47.410;9.740;2022-07-23T00:31:08;18.73;;;9.70;;
4963;SDS011;2497;47.410;9.740;2022-07-23T00:33:35;20.90;;;10.80;;
4963;SDS011;2497;47.410;9.740;2022-07-23T00:36:03;14.20;;;10.17;;
4963;SDS011;2497;47.410;9.740;2022-07-23T00:38:30;17.40;;;11.40;;
4963;SDS011;2497;47.410;9.740;2022-07-23T00:40:59;17.70;;;10.73;;
4963;SDS011;2497;47.410;9.740;2022-07-23T00:43:27;23.37;;;12.70;;
4963;SDS011;2497;47.410;9.740;2022-07-23T00:45:54;19.00;;;10.40;;
4963;SDS011;2497;47.410;9.740;2022-07-23T00:48:21;17.77;;;11.87;;
4963;SDS011;2497;47.410;9.740;2022-07-23T00:50:49;19.97;;;12.17;;
4963;SDS011;2497;47.410;9.740;2022-07-23T00:53:16;26.53;;;13.57;;
4963;SDS011;2497;47.410;9.740;2022-07-23T00:55:43;23.23;;;12.53;;
4963;SDS011;2497;47.410;9.740;2022-07-23T00:58:13;18.63;;;12.67;;
4963;SDS011;2497;47.410;9.740;2022-07-23T01:00:41;20.40;;;12.60;;
4963;SDS011;2497;47.410;9.740;2022-07-23T01:03:08;21.40;;;13.23;;
4963;SDS011;2497;47.410;9.740;2022-07-23T01:05:35;21.83;;;12.63;;
4963;SDS011;2497;47.410;9.740;2022-07-23T01:08:03;21.93;;;12.50;;
4963;SDS011;2497;47.410;9.740;2022-07-23T01:10:32;21.43;;;12.40;;
4963;SDS011;2497;47.410;9.740;2022-07-23T01:12:59;28.50;;;12.40;;
4963;SDS011;2497;47.410;9.740;2022-07-23T01:15:29;23.30;;;13.47;;
4963;SDS011;2497;47.410;9.740;2022-07-23T01:17:57;19.03;;;11.27;;
4963;SDS011;2497;47.410;9.740;2022-07-23T01:20:25;18.87;;;11.17;;
4963;SDS011;2497;47.410;9.740;2022-07-23T01:22:54;24.60;;;12.93;;
4963;SDS011;2497;47.410;9.740;2022-07-23T01:25:22;21.97;;;11.73;;
4963;SDS011;2497;47.410;9.740;2022-07-23T01:27:50;17.50;;;10.90;;
4963;SDS011;2497;47.410;9.740;2022-07-23T01:30:18;17.50;;;11.53;;
4963;SDS011;2497;47.410;9.740;2022-07-23T01:32:46;18.73;;;11.50;;
4963;SDS011;2497;47.410;9.740;2022-07-23T01:35:14;18.77;;;12.17;;
4963;SDS011;2497;47.410;9.740;2022-07-23T01:37:41;25.53;;;14.30;;
4963;SDS011;2497;47.410;9.740;2022-07-23T01:40:10;23.47;;;12.97;;
4963;SDS011;2497;47.410;9.740;2022-07-23T01:42:37;27.57;;;14.90;;
4963;SDS011;2497;47.410;9.740;2022-07-23T01:45:05;18.73;;;13.33;;
4963;SDS011;2497;47.410;9.740;2022-07-23T01:47:33;27.03;;;13.43;;
4963;SDS011;2497;47.410;9.740;2022-07-23T01:50:00;25.13;;;13.83;;
4963;SDS011;2497;47.410;9.740;2022-07-23T01:52:27;27.80;;;14.27;;
4963;SDS011;2497;47.410;9.740;2022-07-23T01:54:55;23.83;;;13.87;;
4963;SDS011;2497;47.410;9.740;2022-07-23T01:57:24;24.77;;;13.30;;
4963;SDS011;2497;47.410;9.740;2022-07-23T01:59:51;27.40;;;14.70;;
4963;SDS011;2497;47.410;9.740;2022-07-23T02:02:19;24.00;;;14.90;;
4963;SDS011;2497;47.410;9.740;2022-07-23T02:04:46;34.43;;;15.13;;
4963;SDS011;2497;47.410;9.740;2022-07-23T02:07:13;21.40;;;13.60;;
4963;SDS011;2497;47.410;9.740;2022-07-23T02:09:41;22.47;;;14.00;;
4963;SDS011;2497;47.410;9.740;2022-07-23T02:12:11;23.00;;;14.43;;
4963;SDS011;2497;47.410;9.740;2022-07-23T02:14:40;28.83;;;13.80;;
4963;SDS011;2497;47.410;9.740;2022-07-23T02:17:07;25.87;;;14.27;;
4963;SDS011;2497;47.410;9.740;2022-07-23T02:19:35;27.67;;;14.67;;
4963;SDS011;2497;47.410;9.740;2022-07-23T02:22:02;24.70;;;13.83;;
4963;SDS011;2497;47.410;9.740;2022-07-23T02:24:30;29.63;;;14.70;;
4963;SDS011;2497;47.410;9.740;2022-07-23T02:26:57;21.40;;;13.67;;
4963;SDS011;2497;47.410;9.740;2022-07-23T02:29:25;30.23;;;15.10;;
4963;SDS011;2497;47.410;9.740;2022-07-23T02:31:53;23.43;;;14.67;;
4963;SDS011;2497;47.410;9.740;2022-07-23T02:34:21;25.20;;;14.03;;
4963;SDS011;2497;47.410;9.740;2022-07-23T02:36:48;23.70;;;14.43;;
4963;SDS011;2497;47.410;9.740;2022-07-23T02:39:16;23.30;;;13.30;;
4963;SDS011;2497;47.410;9.740;2022-07-23T02:41:43;27.40;;;13.97;;
4963;SDS011;2497;47.410;9.740;2022-07-23T02:44:10;23.57;;;13.60;;
4963;SDS011;2497;47.410;9.740;2022-07-23T02:46:38;25.70;;;14.23;;
4963;SDS011;2497;47.410;9.740;2022-07-23T02:49:06;29.17;;;14.80;;
4963;SDS011;2497;47.410;9.740;2022-07-23T02:51:34;27.03;;;14.40;;
4963;SDS011;2497;47.410;9.740;2022-07-23T02:54:01;27.27;;;14.90;;
4963;SDS011;2497;47.410;9.740;2022-07-23T02:56:29;22.10;;;14.17;;
4963;SDS011;2497;47.410;9.740;2022-07-23T02:58:56;24.00;;;13.43;;
4963;SDS011;2497;47.410;9.740;2022-07-23T03:01:23;25.40;;;13.63;;
4963;SDS011;2497;47.410;9.740;2022-07-23T03:03:51;19.40;;;12.70;;
4963;SDS011;2497;47.410;9.740;2022-07-23T03:06:20;20.23;;;13.70;;
4963;SDS011;2497;47.410;9.740;2022-07-23T03:08:48;22.60;;;14.17;;
4963;SDS011;2497;47.410;9.740;2022-07-23T03:11:16;24.97;;;13.30;;
4963;SDS011;2497;47.410;9.740;2022-07-23T03:13:43;18.30;;;11.90;;
4963;SDS011;2497;47.410;9.740;2022-07-23T03:16:11;20.90;;;11.50;;
4963;SDS011;2497;47.410;9.740;2022-07-23T03:18:38;22.97;;;11.70;;
4963;SDS011;2497;47.410;9.740;2022-07-23T03:21:06;16.20;;;10.67;;
4963;SDS011;2497;47.410;9.740;2022-07-23T03:23:35;20.40;;;11.33;;
4963;SDS011;2497;47.410;9.740;2022-07-23T03:26:02;17.03;;;9.57;;
4963;SDS011;2497;47.410;9.740;2022-07-23T03:28:30;16.10;;;10.80;;
4963;SDS011;2497;47.410;9.740;2022-07-23T03:30:57;17.70;;;11.33;;
4963;SDS011;2497;47.410;9.740;2022-07-23T03:33:25;21.03;;;10.87;;
4963;SDS011;2497;47.410;9.740;2022-07-23T03:35:52;13.63;;;9.43;;
4963;SDS011;2497;47.410;9.740;2022-07-23T03:38:20;18.33;;;10.27;;
4963;SDS011;2497;47.410;9.740;2022-07-23T03:40:49;17.73;;;9.80;;
4963;SDS011;2497;47.410;9.740;2022-07-23T03:43:17;22.73;;;12.23;;
4963;SDS011;2497;47.410;9.740;2022-07-23T03:45:44;11.60;;;7.20;;
4963;SDS011;2497;47.410;9.740;2022-07-23T03:48:12;12.37;;;7.47;;
4963;SDS011;2497;47.410;9.740;2022-07-23T03:50:39;16.53;;;9.10;;
4963;SDS011;2497;47.410;9.740;2022-07-23T03:53:07;13.00;;;8.70;;
4963;SDS011;2497;47.410;9.740;2022-07-23T03:55:34;14.10;;;9.07;;
4963;SDS011;2497;47.410;9.740;2022-07-23T03:58:04;11.17;;;6.93;;
4963;SDS011;2497;47.410;9.740;2022-07-23T04:00:31;10.00;;;6.90;;
4963;SDS011;2497;47.410;9.740;2022-07-23T04:02:59;10.10;;;7.20;;
4963;SDS011;2497;47.410;9.740;2022-07-23T04:05:26;10.10;;;7.10;;
4963;SDS011;2497;47.410;9.740;2022-07-23T04:07:54;14.20;;;7.93;;
4963;SDS011;2497;47.410;9.740;2022-07-23T04:10:21;12.03;;;7.67;;
4963;SDS011;2497;47.410;9.740;2022-07-23T04:12:48;11.77;;;7.40;;
4963;SDS011;2497;47.410;9.740;2022-07-23T04:15:18;11.23;;;7.67;;
4963;SDS011;2497;47.410;9.740;2022-07-23T04:17:45;12.57;;;7.60;;
4963;SDS011;2497;47.410;9.740;2022-07-23T04:20:13;11.83;;;7.20;;
4963;SDS011;2497;47.410;9.740;2022-07-23T04:22:40;9.63;;;7.10;;
4963;SDS011;2497;47.410;9.740;2022-07-23T04:25:08;8.20;;;6.00;;
4963;SDS011;2497;47.410;9.740;2022-07-23T04:27:35;10.67;;;7.50;;
4963;SDS011;2497;47.410;9.740;2022-07-23T04:30:03;11.57;;;7.73;;
4963;SDS011;2497;47.410;9.740;2022-07-23T04:32:33;16.80;;;8.17;;
4963;SDS011;2497;47.410;9.740;2022-07-23T04:35:00;13.20;;;8.00;;
4963;SDS011;2497;47.410;9.740;2022-07-23T04:37:27;11.77;;;7.43;;
4963;SDS011;2497;47.410;9.740;2022-07-23T04:39:55;9.93;;;6.93;;
4963;SDS011;2497;47.410;9.740;2022-07-23T04:42:22;9.00;;;7.10;;
4963;SDS011;2497;47.410;9.740;2022-07-23T04:44:50;11.83;;;7.00;;
4963;SDS011;2497;47.410;9.740;2022-07-23T04:47:17;12.73;;;6.97;;
4963;SDS011;2497;47.410;9.740;2022-07-23T04:49:46;10.20;;;7.20;;
4963;SDS011;2497;47.410;9.740;2022-07-23T04:52:14;9.03;;;6.10;;
4963;SDS011;2497;47.410;9.740;2022-07-23T04:54:41;9.60;;;5.87;;
4963;SDS011;2497;47.410;9.740;2022-07-23T04:57:08;9.47;;;5.70;;
4963;SDS011;2497;47.410;9.740;2022-07-23T04:59:36;9.23;;;5.63;;
4963;SDS011;2497;47.410;9.740;2022-07-23T05:02:03;14.67;;;7.13;;
4963;SDS011;2497;47.410;9.740;2022-07-23T05:04:31;9.30;;;5.83;;
4963;SDS011;2497;47.410;9.740;2022-07-23T05:07:00;9.73;;;6.30;;
4963;SDS011;2497;47.410;9.740;2022-07-23T05:09:28;12.90;;;5.53;;
4963;SDS011;2497;47.410;9.740;2022-07-23T05:11:57;7.57;;;5.30;;
4963;SDS011;2497;47.410;9.740;2022-07-23T05:14:24;10.73;;;5.80;;
4963;SDS011;2497;47.410;9.740;2022-07-23T05:16:53;9.37;;;6.00;;
4963;SDS011;2497;47.410;9.740;2022-07-23T05:19:20;8.70;;;5.97;;
4963;SDS011;2497;47.410;9.740;2022-07-23T05:21:47;9.10;;;6.43;;
4963;SDS011;2497;47.410;9.740;2022-07-23T05:24:16;12.07;;;6.93;;
4963;SDS011;2497;47.410;9.740;2022-07-23T05:26:44;8.43;;;6.53;;
4963;SDS011;2497;47.410;9.740;2022-07-23T05:29:11;8.23;;;6.63;;
4963;SDS011;2497;47.410;9.740;2022-07-23T05:31:38;15.33;;;6.80;;
4963;SDS011;2497;47.410;9.740;2022-07-23T05:34:06;13.27;;;6.77;;
4963;SDS011;2497;47.410;9.740;2022-07-23T05:36:33;9.33;;;6.10;;
4963;SDS011;2497;47.410;9.740;2022-07-23T05:39:01;9.50;;;6.90;;
4963;SDS011;2497;47.410;9.740;2022-07-23T05:41:31;9.27;;;6.50;;
4963;SDS011;2497;47.410;9.740;2022-07-23T05:43:58;12.10;;;7.20;;
4963;SDS011;2497;47.410;9.740;2022-07-23T05:46:26;9.80;;;6.10;;
4963;SDS011;2497;47.410;9.740;2022-07-23T05:48:53;11.47;;;7.13;;
4963;SDS011;2497;47.410;9.740;2022-07-23T05:51:20;8.87;;;5.87;;
4963;SDS011;2497;47.410;9.740;2022-07-23T05:53:48;9.30;;;6.53;;
4963;SDS011;2497;47.410;9.740;2022-07-23T05:56:16;8.87;;;6.00;;
4963;SDS011;2497;47.410;9.740;2022-07-23T05:58:45;9.10;;;5.90;;
4963;SDS011;2497;47.410;9.740;2022-07-23T06:01:12;10.30;;;6.30;;
4963;SDS011;2497;47.410;9.740;2022-07-23T06:03:40;9.17;;;6.23;;
4963;SDS011;2497;47.410;9.740;2022-07-23T06:06:07;11.03;;;6.27;;
4963;SDS011;2497;47.410;9.740;2022-07-23T06:08:35;8.90;;;5.83;;
4963;SDS011;2497;47.410;9.740;2022-07-23T06:11:02;9.90;;;6.03;;
4963;SDS011;2497;47.410;9.740;2022-07-23T06:13:30;10.50;;;6.10;;
4963;SDS011;2497;47.410;9.740;2022-07-23T06:15:59;8.63;;;6.20;;
4963;SDS011;2497;47.410;9.740;2022-07-23T06:18:26;10.30;;;6.67;;
4963;SDS011;2497;47.410;9.740;2022-07-23T06:20:53;12.53;;;6.00;;
4963;SDS011;2497;47.410;9.740;2022-07-23T06:23:21;13.67;;;5.83;;
4963;SDS011;2497;47.410;9.740;2022-07-23T06:25:48;12.70;;;6.70;;
4963;SDS011;2497;47.410;9.740;2022-07-23T06:28:16;7.83;;;5.43;;
4963;SDS011;2497;47.410;9.740;2022-07-23T06:30:43;10.90;;;6.07;;
4963;SDS011;2497;47.410;9.740;2022-07-23T06:33:12;9.53;;;5.67;;
4963;SDS011;2497;47.410;9.740;2022-07-23T06:35:39;8.40;;;5.50;;
4963;SDS011;2497;47.410;9.740;2022-07-23T06:38:07;8.47;;;6.00;;
4963;SDS011;2497;47.410;9.740;2022-07-23T06:40:34;9.47;;;6.30;;
4963;SDS011;2497;47.410;9.740;2022-07-23T06:43:01;9.50;;;5.80;;
4963;SDS011;2497;47.410;9.740;2022-07-23T06:45:29;8.43;;;5.33;;
4963;SDS011;2497;47.410;9.740;2022-07-23T06:47:57;9.80;;;6.50;;
4963;SDS011;2497;47.410;9.740;2022-07-23T06:50:26;11.53;;;5.93;;
4963;SDS011;2497;47.410;9.740;2022-07-23T06:52:54;8.77;;;5.70;;
4963;SDS011;2497;47.410;9.740;2022-07-23T06:55:21;7.17;;;5.13;;
4963;SDS011;2497;47.410;9.740;2022-07-23T06:57:48;7.60;;;5.67;;
4963;SDS011;2497;47.410;9.740;2022-07-23T07:00:16;8.60;;;5.93;;
4963;SDS011;2497;47.410;9.740;2022-07-23T07:02:43;8.30;;;4.90;;
4963;SDS011;2497;47.410;9.740;2022-07-23T07:05:11;6.23;;;4.90;;
4963;SDS011;2497;47.410;9.740;2022-07-23T07:07:40;10.10;;;6.37;;
4963;SDS011;2497;47.410;9.740;2022-07-23T07:10:08;8.53;;;5.80;;
4963;SDS011;2497;47.410;9.740;2022-07-23T07:12:36;11.43;;;5.33;;
4963;SDS011;2497;47.410;9.740;2022-07-23T07:15:03;9.63;;;5.90;;
4963;SDS011;2497;47.410;9.740;2022-07-23T07:17:31;6.20;;;5.03;;
4963;SDS011;2497;47.410;9.740;2022-07-23T07:20:02;8.87;;;5.40;;
4963;SDS011;2497;47.410;9.740;2022-07-23T08:23:09;10.70;;;6.73;;
4963;SDS011;2497;47.410;9.740;2022-07-23T08:39:00;11.40;;;6.90;;
4963;SDS011;2497;47.410;9.740;2022-07-23T09:02:09;8.87;;;6.40;;
4963;SDS011;2497;47.410;9.740;2022-07-23T09:04:37;11.50;;;7.20;;
4963;SDS011;2497;47.410;9.740;2022-07-23T09:07:05;12.87;;;8.00;;
4963;SDS011;2497;47.410;9.740;2022-07-23T09:09:33;10.40;;;7.57;;
4963;SDS011;2497;47.410;9.740;2022-07-23T09:12:04;10.10;;;7.10;;
4963;SDS011;2497;47.410;9.740;2022-07-23T09:14:37;13.10;;;7.43;;
4963;SDS011;2497;47.410;9.740;2022-07-23T09:17:11;12.57;;;8.17;;
4963;SDS011;2497;47.410;9.740;2022-07-23T09:19:40;14.70;;;8.27;;
4963;SDS011;2497;47.410;9.740;2022-07-23T09:22:18;12.50;;;7.33;;
4963;SDS011;2497;47.410;9.740;2022-07-23T09:25:02;11.90;;;7.37;;
4963;SDS011;2497;47.410;9.740;2022-07-23T09:27:51;9.93;;;7.30;;
4963;SDS011;2497;47.410;9.740;2022-07-23T09:30:21;16.57;;;7.60;;
4963;SDS011;2497;47.410;9.740;2022-07-23T09:33:07;13.33;;;8.10;;
4963;SDS011;2497;47.410;9.740;2022-07-23T09:35:45;12.10;;;7.70;;
4963;SDS011;2497;47.410;9.740;2022-07-23T09:38:15;14.20;;;8.50;;
4963;SDS011;2497;47.410;9.740;2022-07-23T09:40:44;13.93;;;7.43;;
4963;SDS011;2497;47.410;9.740;2022-07-23T09:43:12;14.80;;;8.27;;
4963;SDS011;2497;47.410;9.740;2022-07-23T09:45:52;16.57;;;8.10;;
4963;SDS011;2497;47.410;9.740;2022-07-23T09:48:22;13.17;;;7.77;;
4963;SDS011;2497;47.410;9.740;2022-07-23T09:50:49;13.80;;;8.03;;
4963;SDS011;2497;47.410;9.740;2022-07-23T09:53:23;14.03;;;9.13;;
4963;SDS011;2497;47.410;9.740;2022-07-23T09:55:51;12.77;;;8.50;;
4963;SDS011;2497;47.410;9.740;2022-07-23T09:58:22;15.43;;;8.70;;
4963;SDS011;2497;47.410;9.740;2022-07-23T10:00:51;15.80;;;8.60;;
4963;SDS011;2497;47.410;9.740;2022-07-23T10:03:19;13.37;;;8.90;;
4963;SDS011;2497;47.410;9.740;2022-07-23T10:05:50;17.43;;;9.07;;
4963;SDS011;2497;47.410;9.740;2022-07-23T10:08:26;14.43;;;8.43;;
4963;SDS011;2497;47.410;9.740;2022-07-23T10:10:55;15.43;;;8.77;;
4963;SDS011;2497;47.410;9.740;2022-07-23T10:13:22;16.93;;;9.60;;
4963;SDS011;2497;47.410;9.740;2022-07-23T10:16:13;12.40;;;8.00;;
4963;SDS011;2497;47.410;9.740;2022-07-23T10:18:43;12.50;;;7.67;;
4963;SDS011;2497;47.410;9.740;2022-07-23T10:21:11;15.37;;;8.43;;
4963;SDS011;2497;47.410;9.740;2022-07-23T10:23:47;12.73;;;7.83;;
4963;SDS011;2497;47.410;9.740;2022-07-23T10:26:27;10.40;;;7.20;;
4963;SDS011;2497;47.410;9.740;2022-07-23T10:29:06;11.40;;;7.83;;
4963;SDS011;2497;47.410;9.740;2022-07-23T10:31:47;10.40;;;7.90;;
4963;SDS011;2497;47.410;9.740;2022-07-23T10:34:28;9.23;;;6.50;;
4963;SDS011;2497;47.410;9.740;2022-07-23T10:37:05;12.00;;;6.43;;
4963;SDS011;2497;47.410;9.740;2022-07-23T10:39:44;8.83;;;6.20;;
4963;SDS011;2497;47.410;9.740;2022-07-23T10:42:12;7.17;;;5.77;;
4963;SDS011;2497;47.410;9.740;2022-07-23T10:44:43;8.87;;;5.53;;
4963;SDS011;2497;47.410;9.740;2022-07-23T10:47:13;8.70;;;5.53;;
4963;SDS011;2497;47.410;9.740;2022-07-23T10:50:18;8.50;;;6.03;;
4963;SDS011;2497;47.410;9.740;2022-07-23T10:55:44;7.40;;;5.43;;
4963;SDS011;2497;47.410;9.740;2022-07-23T10:58:17;13.07;;;5.97;;
4963;SDS011;2497;47.410;9.740;2022-07-23T11:00:50;10.90;;;6.60;;
4963;SDS011;2497;47.410;9.740;2022-07-23T11:03:28;5.10;;;4.43;;
4963;SDS011;2497;47.410;9.740;2022-07-23T11:06:03;10.27;;;6.23;;
4963;SDS011;2497;47.410;9.740;2022-07-23T11:08:32;7.13;;;5.27;;
4963;SDS011;2497;47.410;9.740;2022-07-23T11:11:10;7.60;;;5.03;;
4963;SDS011;2497;47.410;9.740;2022-07-23T11:13:39;6.10;;;4.80;;
4963;SDS011;2497;47.410;9.740;2022-07-23T11:16:24;7.60;;;4.60;;
4963;SDS011;2497;47.410;9.740;2022-07-23T11:18:56;7.10;;;5.00;;
4963;SDS011;2497;47.410;9.740;2022-07-23T11:24:23;5.93;;;4.70;;
4963;SDS011;2497;47.410;9.740;2022-07-23T11:27:02;7.43;;;5.07;;
4963;SDS011;2497;47.410;9.740;2022-07-23T11:32:27;9.03;;;5.37;;
4963;SDS011;2497;47.410;9.740;2022-07-23T11:35:00;9.60;;;5.40;;
4963;SDS011;2497;47.410;9.740;2022-07-23T11:37:37;5.97;;;5.37;;
4963;SDS011;2497;47.410;9.740;2022-07-23T11:40:07;9.77;;;5.53;;
4963;SDS011;2497;47.410;9.740;2022-07-23T11:42:37;8.33;;;5.00;;
4963;SDS011;2497;47.410;9.740;2022-07-23T11:45:06;7.37;;;5.60;;
4963;SDS011;2497;47.410;9.740;2022-07-23T11:47:35;7.50;;;4.93;;
4963;SDS011;2497;47.410;9.740;2022-07-23T11:50:03;9.80;;;5.47;;
4963;SDS011;2497;47.410;9.740;2022-07-23T11:52:32;6.00;;;5.13;;
4963;SDS011;2497;47.410;9.740;2022-07-23T11:55:03;5.13;;;4.17;;
4963;SDS011;2497;47.410;9.740;2022-07-23T11:57:32;7.80;;;5.13;;
4963;SDS011;2497;47.410;9.740;2022-07-23T12:00:02;9.20;;;5.90;;
4963;SDS011;2497;47.410;9.740;2022-07-23T12:02:32;8.67;;;5.33;;
4963;SDS011;2497;47.410;9.740;2022-07-23T12:04:59;11.43;;;6.07;;
4963;SDS011;2497;47.410;9.740;2022-07-23T12:07:28;8.60;;;4.97;;
4963;SDS011;2497;47.410;9.740;2022-07-23T12:09:57;6.93;;;5.07;;
4963;SDS011;2497;47.410;9.740;2022-07-23T12:12:27;10.20;;;5.83;;
4963;SDS011;2497;47.410;9.740;2022-07-23T12:15:01;7.27;;;5.07;;
4963;SDS011;2497;47.410;9.740;2022-07-23T12:17:30;9.40;;;6.33;;
4963;SDS011;2497;47.410;9.740;2022-07-23T12:19:59;8.67;;;6.23;;
4963;SDS011;2497;47.410;9.740;2022-07-23T12:22:33;7.07;;;5.90;;
4963;SDS011;2497;47.410;9.740;2022-07-23T12:25:03;8.93;;;5.57;;
4963;SDS011;2497;47.410;9.740;2022-07-23T12:27:35;27.37;;;9.47;;
4963;SDS011;2497;47.410;9.740;2022-07-23T12:30:19;9.10;;;5.60;;
4963;SDS011;2497;47.410;9.740;2022-07-23T12:32:49;9.43;;;5.90;;
4963;SDS011;2497;47.410;9.740;2022-07-23T12:35:18;10.77;;;6.30;;
4963;SDS011;2497;47.410;9.740;2022-07-23T12:37:47;5.90;;;5.10;;
4963;SDS011;2497;47.410;9.740;2022-07-23T12:40:27;6.90;;;5.50;;
4963;SDS011;2497;47.410;9.740;2022-07-23T12:43:00;7.20;;;5.60;;
4963;SDS011;2497;47.410;9.740;2022-07-23T12:45:41;10.97;;;5.87;;
4963;SDS011;2497;47.410;9.740;2022-07-23T12:48:15;10.23;;;6.23;;
4963;SDS011;2497;47.410;9.740;2022-07-23T12:50:49;7.97;;;6.57;;
4963;SDS011;2497;47.410;9.740;2022-07-23T12:53:19;9.60;;;6.20;;
4963;SDS011;2497;47.410;9.740;2022-07-23T12:55:47;7.80;;;5.97;;
4963;SDS011;2497;47.410;9.740;2022-07-23T12:58:18;7.80;;;6.40;;
4963;SDS011;2497;47.410;9.740;2022-07-23T13:00:57;10.43;;;6.57;;
4963;SDS011;2497;47.410;9.740;2022-07-23T13:03:29;9.93;;;6.77;;
4963;SDS011;2497;47.410;9.740;2022-07-23T13:06:04;8.40;;;6.40;;
4963;SDS011;2497;47.410;9.740;2022-07-23T13:08:34;8.80;;;6.47;;
4963;SDS011;2497;47.410;9.740;2022-07-23T13:11:04;10.60;;;6.50;;
4963;SDS011;2497;47.410;9.740;2022-07-23T13:13:34;9.03;;;6.30;;
4963;SDS011;2497;47.410;9.740;2022-07-23T13:16:02;9.77;;;6.27;;
4963;SDS011;2497;47.410;9.740;2022-07-23T13:18:30;7.83;;;6.27;;
4963;SDS011;2497;47.410;9.740;2022-07-23T13:20:58;9.07;;;6.40;;
4963;SDS011;2497;47.410;9.740;2022-07-23T13:23:26;8.10;;;6.50;;
4963;SDS011;2497;47.410;9.740;2022-07-23T13:25:54;11.33;;;6.63;;
4963;SDS011;2497;47.410;9.740;2022-07-23T13:28:22;9.00;;;7.03;;
4963;SDS011;2497;47.410;9.740;2022-07-23T13:30:52;7.03;;;6.30;;
4963;SDS011;2497;47.410;9.740;2022-07-23T13:33:20;13.20;;;7.10;;
4963;SDS011;2497;47.410;9.740;2022-07-23T13:35:50;9.67;;;6.57;;
4963;SDS011;2497;47.410;9.740;2022-07-23T13:38:19;10.50;;;6.67;;
4963;SDS011;2497;47.410;9.740;2022-07-23T13:40:48;8.10;;;5.97;;
4963;SDS011;2497;47.410;9.740;2022-07-23T13:43:17;9.03;;;6.60;;
4963;SDS011;2497;47.410;9.740;2022-07-23T13:45:47;10.10;;;6.57;;
4963;SDS011;2497;47.410;9.740;2022-07-23T13:48:17;9.43;;;6.17;;
4963;SDS011;2497;47.410;9.740;2022-07-23T13:50:46;13.47;;;6.50;;
4963;SDS011;2497;47.410;9.740;2022-07-23T13:53:15;9.50;;;7.03;;
4963;SDS011;2497;47.410;9.740;2022-07-23T13:55:44;7.73;;;6.10;;
4963;SDS011;2497;47.410;9.740;2022-07-23T13:58:12;9.57;;;6.57;;
4963;SDS011;2497;47.410;9.740;2022-07-23T14:00:42;10.60;;;6.67;;
4963;SDS011;2497;47.410;9.740;2022-07-23T14:03:11;9.77;;;7.33;;
4963;SDS011;2497;47.410;9.740;2022-07-23T14:05:40;11.60;;;7.30;;
4963;SDS011;2497;47.410;9.740;2022-07-23T14:08:07;8.03;;;7.20;;
4963;SDS011;2497;47.410;9.740;2022-07-23T14:10:35;7.07;;;6.20;;
4963;SDS011;2497;47.410;9.740;2022-07-23T14:13:03;10.10;;;7.27;;
4963;SDS011;2497;47.410;9.740;2022-07-23T14:15:31;13.27;;;7.03;;
4963;SDS011;2497;47.410;9.740;2022-07-23T14:17:59;12.37;;;7.13;;
4963;SDS011;2497;47.410;9.740;2022-07-23T14:20:27;9.23;;;6.23;;
4963;SDS011;2497;47.410;9.740;2022-07-23T14:22:57;10.07;;;7.30;;
4963;SDS011;2497;47.410;9.740;2022-07-23T14:25:25;9.50;;;6.50;;
4963;SDS011;2497;47.410;9.740;2022-07-23T14:27:53;11.87;;;7.50;;
4963;SDS011;2497;47.410;9.740;2022-07-23T14:30:21;10.27;;;6.93;;
4963;SDS011;2497;47.410;9.740;2022-07-23T14:32:49;9.30;;;6.73;;
4963;SDS011;2497;47.410;9.740;2022-07-23T14:35:17;8.80;;;6.90;;
4963;SDS011;2497;47.410;9.740;2022-07-23T14:37:45;8.40;;;7.27;;
4963;SDS011;2497;47.410;9.740;2022-07-23T14:40:14;10.07;;;6.90;;
4963;SDS011;2497;47.410;9.740;2022-07-23T14:42:42;7.90;;;6.40;;
4963;SDS011;2497;47.410;9.740;2022-07-23T14:45:10;11.70;;;6.90;;
4963;SDS011;2497;47.410;9.740;2022-07-23T14:47:38;9.57;;;7.23;;
4963;SDS011;2497;47.410;9.740;2022-07-23T14:50:06;10.90;;;7.37;;
4963;SDS011;2497;47.410;9.740;2022-07-23T14:52:34;11.00;;;7.10;;
4963;SDS011;2497;47.410;9.740;2022-07-23T14:55:12;11.43;;;6.10;;
4963;SDS011;2497;47.410;9.740;2022-07-23T14:58:15;10.67;;;7.40;;
4963;SDS011;2497;47.410;9.740;2022-07-23T15:07:39;12.07;;;7.90;;
4963;SDS011;2497;47.410;9.740;2022-07-23T15:10:54;7.27;;;6.10;;
4963;SDS011;2497;47.410;9.740;2022-07-23T15:34:25;9.00;;;6.97;;
4963;SDS011;2497;47.410;9.740;2022-07-23T17:29:54;12.57;;;8.10;;
4963;SDS011;2497;47.410;9.740;2022-07-23T17:32:23;12.50;;;8.27;;
4963;SDS011;2497;47.410;9.740;2022-07-23T17:34:51;14.50;;;9.90;;
4963;SDS011;2497;47.410;9.740;2022-07-23T17:37:18;18.27;;;8.70;;
4963;SDS011;2497;47.410;9.740;2022-07-23T17:39:45;15.67;;;8.60;;
4963;SDS011;2497;47.410;9.740;2022-07-23T17:42:14;12.70;;;8.67;;
4963;SDS011;2497;47.410;9.740;2022-07-23T17:44:41;9.97;;;7.93;;
4963;SDS011;2497;47.410;9.740;2022-07-23T17:47:11;10.50;;;8.23;;
4963;SDS011;2497;47.410;9.740;2022-07-23T17:49:38;13.53;;;8.77;;
4963;SDS011;2497;47.410;9.740;2022-07-23T17:52:06;11.30;;;8.50;;
4963;SDS011;2497;47.410;9.740;2022-07-23T17:54:34;12.17;;;8.90;;
4963;SDS011;2497;47.410;9.740;2022-07-23T17:57:01;11.10;;;8.70;;
4963;SDS011;2497;47.410;9.740;2022-07-23T17:59:42;11.67;;;9.13;;
4963;SDS011;2497;47.410;9.740;2022-07-23T18:02:13;17.63;;;9.13;;
4963;SDS011;2497;47.410;9.740;2022-07-23T18:04:41;14.30;;;9.37;;
4963;SDS011;2497;47.410;9.740;2022-07-23T18:07:12;11.30;;;7.63;;
4963;SDS011;2497;47.410;9.740;2022-07-23T18:09:43;12.80;;;8.60;;
4963;SDS011;2497;47.410;9.740;2022-07-23T18:12:12;12.93;;;9.00;;
4963;SDS011;2497;47.410;9.740;2022-07-23T18:14:41;15.03;;;8.70;;
4963;SDS011;2497;47.410;9.740;2022-07-23T18:17:16;17.20;;;9.90;;
4963;SDS011;2497;47.410;9.740;2022-07-23T18:19:47;14.23;;;9.43;;
4963;SDS011;2497;47.410;9.740;2022-07-23T18:22:15;14.37;;;8.70;;
4963;SDS011;2497;47.410;9.740;2022-07-23T18:24:43;18.27;;;10.40;;
4963;SDS011;2497;47.410;9.740;2022-07-23T18:27:10;20.17;;;8.77;;
4963;SDS011;2497;47.410;9.740;2022-07-23T18:29:38;13.80;;;8.93;;
4963;SDS011;2497;47.410;9.740;2022-07-23T18:32:07;12.07;;;9.07;;
4963;SDS011;2497;47.410;9.740;2022-07-23T18:34:38;14.87;;;9.20;;
4963;SDS011;2497;47.410;9.740;2022-07-23T18:37:07;13.17;;;8.43;;
4963;SDS011;2497;47.410;9.740;2022-07-23T18:39:34;11.50;;;9.40;;
4963;SDS011;2497;47.410;9.740;2022-07-23T18:42:02;13.67;;;9.53;;
4963;SDS011;2497;47.410;9.740;2022-07-23T18:44:30;14.67;;;9.07;;
4963;SDS011;2497;47.410;9.740;2022-07-23T18:46:58;12.20;;;8.73;;
4963;SDS011;2497;47.410;9.740;2022-07-23T18:49:46;10.50;;;8.67;;
4963;SDS011;2497;47.410;9.740;2022-07-23T18:52:14;12.03;;;8.50;;
4963;SDS011;2497;47.410;9.740;2022-07-23T18:54:43;14.83;;;9.07;;
4963;SDS011;2497;47.410;9.740;2022-07-23T18:57:16;12.43;;;8.80;;
4963;SDS011;2497;47.410;9.740;2022-07-23T18:59:55;13.70;;;8.67;;
4963;SDS011;2497;47.410;9.740;2022-07-23T19:02:24;12.87;;;9.00;;
4963;SDS011;2497;47.410;9.740;2022-07-23T19:04:55;18.23;;;9.17;;
4963;SDS011;2497;47.410;9.740;2022-07-23T19:07:23;13.40;;;8.87;;
4963;SDS011;2497;47.410;9.740;2022-07-23T19:09:51;11.10;;;8.50;;
4963;SDS011;2497;47.410;9.740;2022-07-23T19:12:21;12.07;;;8.60;;
4963;SDS011;2497;47.410;9.740;2022-07-23T19:14:51;13.93;;;8.73;;
4963;SDS011;2497;47.410;9.740;2022-07-23T19:17:19;16.33;;;8.70;;
4963;SDS011;2497;47.410;9.740;2022-07-23T19:19:46;10.30;;;7.50;;
4963;SDS011;2497;47.410;9.740;2022-07-23T19:22:15;10.80;;;8.43;;